Flight Track Log - Related Links

Times and Time Zones

All times are in EDT time to prevent confusion due to time zone crossing. See the N960DL flight status page for this flight to view local times or setup timezone preferences in your user account.

Time Position Orientation Groundspeed Altitude Reporting Facility
EDT Latitude Longitude Course Direction KTS MPH feet Rate Location/Type
Thu 09:52:04 AM 37.5500 -77.3500 255° West 204 235 2,200  Level Potomac TRACON
Thu 09:53:14 AM 37.5794 -77.4289 295° West 262 302 5,300 3,138 Climbing Washington Center
Thu 09:54:00 AM 37.3889 -77.7915 254° West  Level FlightAware Approximate
Thu 09:54:14 AM 37.5406 -77.5169 241° Southwest 252 290 9,000  Level Washington Center
Thu 09:55:00 AM 37.3620 -77.9126 254° West  Level FlightAware Approximate
Thu 09:55:14 AM 37.5097 -77.6025 246° West 263 303 9,400  Level Washington Center
Thu 09:56:00 AM 37.3440 -78.0347 247° West  Level FlightAware Approximate
Thu 09:57:00 AM 37.3146 -78.1545 255° West  Level FlightAware Approximate
Thu 09:57:14 AM 37.4400 -77.7836 244° Southwest 293 337 15,200  Level Washington Center
Thu 09:58:14 AM 37.4028 -77.8742 243° Southwest 293 337 17,600 2,200 Climbing Washington Center
Thu 09:59:14 AM 37.3633 -77.9722 243° Southwest 304 350 19,600 1,450 Climbing Washington Center
Thu 10:00:14 AM 37.3361 -78.0811 253° West 317 365 20,500 900 Climbing Washington Center
Thu 10:01:14 AM 37.3150 -78.1903 256° West 330 380 21,400 1,400 Climbing Washington Center
Thu 10:02:14 AM 37.2847 -78.3353 255° West 372 428 23,300 2,200 Climbing Washington Center
Thu 10:03:14 AM 37.2794 -78.4656 267° West 385 443 25,800 1,850 Climbing Washington Center
Thu 10:04:14 AM 37.2764 -78.5933 268° West 385 443 27,000 1,200 Climbing Washington Center
Thu 10:05:14 AM 37.2711 -78.7211 267° West 385 443 28,200 1,450 Climbing Washington Center
Thu 10:06:14 AM 37.2681 -78.8333 268° West 378 435 29,900 1,700 Climbing Washington Center
Thu 10:07:14 AM 37.2647 -78.9558 268° West 362 417 31,600 1,050 Climbing Washington Center
Thu 10:08:14 AM 37.2592 -79.0703 267° West 351 404 32,000 200 Climbing Washington Center
Thu 10:09:14 AM 37.2558 -79.1903 268° West 345 397 32,000  Level Washington Center
Thu 10:10:14 AM 37.2397 -79.3067 260° West 345 397 32,000  Level Washington Center
Thu 10:11:14 AM 37.2131 -79.4203 254° West 345 397 32,000  Level Washington Center
Thu 10:12:14 AM 37.1861 -79.5467 255° West 350 403 32,000  Level Washington Center
Thu 10:13:14 AM 37.1572 -79.6572 252° West 345 397 32,000  Level Washington Center
Thu 10:14:15 AM 37.1061 -79.7561 237° Southwest 345 397 32,000  Level Washington Center
Thu 10:15:14 AM 37.0506 -79.8519 234° Southwest 339 390 32,000  Level Washington Center
Thu 10:16:14 AM 36.9947 -79.9503 235° Southwest 345 397 32,000  Level Washington Center
Thu 10:18:05 AM 36.8922 -80.1172 233° Southwest 356 410 32,000  Level Atlanta Center
Thu 10:19:05 AM 36.8289 -80.2214 233° Southwest 356 410 32,000  Level Atlanta Center
Thu 10:20:05 AM 36.7736 -80.3200 235° Southwest 356 410 32,000  Level Atlanta Center
Thu 10:21:05 AM 36.7178 -80.4106 232° Southwest 350 403 32,000  Level Atlanta Center
Thu 10:22:05 AM 36.6583 -80.5117 234° Southwest 350 403 32,000  Level Atlanta Center
Thu 10:23:05 AM 36.6106 -80.5939 234° Southwest 345 397 32,000  Level Atlanta Center
Thu 10:24:05 AM 36.5528 -80.6919 234° Southwest 350 403 32,000  Level Atlanta Center
Thu 10:25:05 AM 36.4928 -80.7900 233° Southwest 350 403 32,000  Level Atlanta Center
Thu 10:26:05 AM 36.4289 -80.8933 232° Southwest 350 403 32,000  Level Atlanta Center
Thu 10:27:05 AM 36.3708 -80.9911 234° Southwest 350 403 32,000  Level Atlanta Center
Thu 10:28:05 AM 36.3106 -81.0886 233° Southwest 355 409 32,000  Level Atlanta Center
Thu 10:29:05 AM 36.2506 -81.1886 233° Southwest 355 409 32,000  Level Atlanta Center
Thu 10:30:05 AM 36.1922 -81.2858 233° Southwest 355 409 32,000  Level Atlanta Center
Thu 10:31:05 AM 36.1317 -81.3831 232° Southwest 361 415 32,000  Level Atlanta Center
Thu 10:32:05 AM 36.0733 -81.4800 233° Southwest 356 410 32,000  Level Atlanta Center
Thu 10:33:05 AM 36.0128 -81.5769 232° Southwest 356 410 32,000  Level Atlanta Center
Thu 10:34:05 AM 35.9519 -81.6736 232° Southwest 361 415 32,000  Level Atlanta Center
Thu 10:35:05 AM 35.8892 -81.7731 232° Southwest 366 421 32,000  Level Atlanta Center
Thu 10:36:05 AM 35.8286 -81.8744 234° Southwest 371 427 32,000  Level Atlanta Center
Thu 10:37:05 AM 35.7611 -81.9658 228° Southwest 371 427 32,000  Level Atlanta Center
Thu 10:38:05 AM 35.6897 -82.0572 226° Southwest 371 427 32,000  Level Atlanta Center
Thu 10:39:05 AM 35.6181 -82.1508 227° Southwest 371 427 32,000  Level Atlanta Center
Thu 10:40:05 AM 35.5525 -82.2289 224° Southwest 371 427 32,000 -550 Level Atlanta Center
Thu 10:41:05 AM 35.4831 -82.3197 227° Southwest 376 433 30,900 -900 Descending Atlanta Center
Thu 10:42:05 AM 35.4111 -82.4078 225° Southwest 376 433 30,200 -750 Descending Atlanta Center
Thu 10:43:05 AM 35.3350 -82.4958 223° Southwest 376 433 29,400 -750 Descending Atlanta Center
Thu 10:44:05 AM 35.2611 -82.5761 222° Southwest 364 419 28,700 -750 Descending Atlanta Center
Thu 10:45:05 AM 35.1847 -82.6564 221° Southwest 364 419 27,900 -1,000 Descending Atlanta Center
Thu 10:46:05 AM 35.1083 -82.7389 221° Southwest 364 419 26,700 -950 Descending Atlanta Center
Thu 10:47:05 AM 35.0278 -82.8239 221° Southwest 364 419 26,000 -550 Descending Atlanta Center
Thu 10:48:05 AM 34.9517 -82.9111 223° Southwest 374 430 25,600 -450 Descending Atlanta Center
Thu 10:49:05 AM 34.8708 -82.9958 221° Southwest 382 440 25,100 -650 Descending Atlanta Center
Thu 10:50:05 AM 34.7944 -83.0800 222° Southwest 377 434 24,300 -700 Descending Atlanta Center
Thu 10:51:05 AM 34.7158 -83.1669 222° Southwest 383 441 23,700 -550 Descending Atlanta Center
Thu 10:52:05 AM 34.6369 -83.2511 221° Southwest 378 435 23,200 -350 Descending Atlanta Center
Thu 10:53:05 AM 34.5644 -83.3325 223° Southwest 371 427 23,000 -550 Descending Atlanta Center
Thu 10:54:05 AM 34.4878 -83.4114 220° Southwest 366 421 22,100 -1,650 Descending Atlanta Center
Thu 10:55:05 AM 34.4150 -83.4900 222° Southwest 361 415 19,700 -2,300 Descending Atlanta Center
Thu 10:56:05 AM 34.3381 -83.5733 222° Southwest 356 410 17,500 -1,800 Descending Atlanta Center
Thu 10:57:05 AM 34.2717 -83.6442 221° Southwest 341 392 16,100 -1,650 Descending Atlanta Center
Thu 10:58:05 AM 34.2092 -83.7097 221° Southwest 319 367 14,200 -1,900 Descending Atlanta Center
Thu 10:59:05 AM 34.1508 -83.7753 223° Southwest 298 343 12,300 -1,100 Descending Atlanta Center
Thu 11:00:05 AM 34.0925 -83.8381 222° Southwest 293 337 12,000 -550 Descending Atlanta Center
Thu 11:01:05 AM 34.0383 -83.8958 221° Southwest 277 319 11,200 -1,350 Descending Atlanta Center
Thu 11:02:05 AM 33.9842 -83.9586 224° Southwest 271 312 9,300 -1,100 Descending Atlanta Center
Thu 11:03:05 AM 33.9111 -83.9786 193° South 266 306 9,000 -150 Descending Atlanta Center
Thu 11:04:05 AM 33.8403 -83.9864 185° South 266 306 9,000 -450 Level Atlanta Center
Thu 11:05:05 AM 33.7631 -83.9914 183° South 280 322 8,100 -500 Descending Atlanta Center
Thu 11:06:05 AM 33.6900 -83.9964 183° South 275 316 8,000 -630 Descending Atlanta Center
Thu 11:08:06 AM 33.6333 -84.1000 237° Southwest 175 201 6,200 -928 Descending Atlanta TRACON
Thu 11:09:06 AM 33.6333 -84.1500 270° West 188 216 5,200 -952 Descending Atlanta TRACON
Thu 11:10:12 AM 33.6333 -84.2167 270° West 181 208 4,200 -909 Descending Atlanta TRACON

Login

Don't have an account? Register now (free) for customized features, flight alerts, and more!